Weldon, Iowa
Current Conditions -  °F | °C
As of 4:15 PM on Saturday 20 Dec 2014 (Local Time) from KI75 Reporting Station
Haze Haze  
Wind Chill: 31°   Ceiling: 500
Heat Index: 35°   Visibility: 2.5mi
Dew Point: 34°   Wind: 5mph
Humidity: 96%   Direction: 160°SSE
Pressure: 30.13"   Gusts: NA
Location:  40.9°N, 93.73°W
Report Text: KI75 202215Z AUTO 16004KT 2 1/2SM BR BKN005 OVC011 02/01 A3013 RMK AO2 T00170011
Loading
Personal Weather Stations






























Interactive Weather Map New forecast layout! Learn more

10-Day Weather Forecast

Advertisements
Track Severe Weather on mobile